Terminal Aerodrome Forecast
Issued by NWS

Home | Current Version | Previous Version | Graphics & Text | Print | Product List | Glossary On
Versions: 1 2 3 4 5 6 7 8 9 10 11 12 13 14 15 16 17 18 19 20 21 22 23 24 25
638
FTUS43 KMPX 192337
TAFRWF
TAF
KRWF 192337Z 2000/2024 15009KT 2SM BR OVC005
     FM200300 14006KT 1/2SM FG VV002
     FM201600 13006KT 2SM BR OVC004
     FM202000 13006KT 4SM BR OVC005=

USA.gov is the U.S. government's official web portal to all federal, state and local government web resources and services.